Time;durP1;ratioP1;P1;durP2;ratioP2;P2;SDS_P1;SDS_P2;PMS_P1;PMS_P2;Temp;Humidity;BMP_temperature;BMP_pressure;BME280_temperature;BME280_humidity;BME280_pressure;Samples;Min_cycle;Max_cycle;Signal;HPM_P1;HPM_P2
2022/10/21 00:00:52;;;;;;;;;;;;;;;9.53;53.28;100725.09;4339263;33;20010;-86
2022/10/21 00:03:20;;;;;;;;;;;;;;;9.57;52.95;100721.78;4348676;32;19979;-87
2022/10/21 00:05:47;;;;;;;;;;;;;;;9.60;52.43;100719.31;4340593;33;19987;-80
2022/10/21 00:08:14;;;;;;;;;;;;;;;9.61;52.52;100715.91;4340930;33;19983;-89
2022/10/21 00:10:41;;;;;;;;;;;;;;;9.57;52.72;100721.78;4342433;32;19979;-82
2022/10/21 00:13:07;;;;;;;;;;;;;;;9.46;53.11;100720.56;4344469;32;19980;-86
2022/10/21 00:15:42;;;;;;;;;;;;;;;9.39;53.13;100721.16;4276657;32;10000375;-83
2022/10/21 00:18:09;;;;;;;;;;;;;;;9.27;53.41;100727.66;4346851;32;20428;-90
2022/10/21 00:20:38;;;;;;;;;;;;;;;9.42;53.18;100721.28;4340689;33;20238;-87
2022/10/21 00:23:05;;;;;;;;;;;;;;;9.34;53.54;100717.53;4340679;33;20026;-91
2022/10/21 00:25:32;;;;;;;;;;;;;;;9.35;53.58;100714.13;4345843;32;19984;-86
2022/10/21 00:27:59;;;;;;;;;;;;;;;9.36;53.37;100710.72;4341680;32;20849;-92
2022/10/21 00:30:25;;;;;;;;;;;;;;;9.47;52.93;100704.22;4349187;32;19975;-87
2022/10/21 00:32:52;;;;;;;;;;;;;;;9.16;53.85;100704.87;4340501;33;19979;-91
2022/10/21 00:35:19;;;;;;;;;;;;;;;9.16;53.46;100699.69;4348442;32;20384;-83
2022/10/21 00:37:46;;;;;;;;;;;;;;;9.22;53.05;100698.22;4339692;32;19987;-90
2022/10/21 00:40:13;;;;;;;;;;;;;;;9.12;53.48;100685.78;4347486;32;20003;-84
2022/10/21 00:42:39;;;;;;;;;;;;;;;9.34;52.94;100676.19;4340534;33;19984;-84
2022/10/21 00:45:22;;;;;;;;;;;;;;;9.40;53.01;100691.91;4340097;33;20050;-91
2022/10/21 00:47:59;;;;;;;;;;;;;;;9.35;53.17;100689.19;4339127;33;20676;-82
2022/10/21 00:50:38;;;;;;;;;;;;;;;9.11;53.58;100686.59;4339209;33;20035;-85
2022/10/21 00:53:11;;;;;;;;;;;;;;;9.11;53.58;100688.31;4348984;32;19997;-87
2022/10/21 00:55:38;;;;;;;;;;;;;;;9.23;53.37;100679.28;4339757;32;19987;-88
2022/10/21 00:58:05;;;;;;;;;;;;;;;8.98;53.93;100674.09;4334100;33;20313;-78
2022/10/21 01:00:32;;;;;;;;;;;;;;;9.17;53.38;100680.78;4339025;33;20010;-88
2022/10/21 01:02:59;;;;;;;;;;;;;;;9.27;52.91;100681.16;4340268;33;20010;-83
2022/10/21 01:05:25;;;;;;;;;;;;;;;9.28;53.12;100677.75;4340614;33;20317;-85
2022/10/21 01:07:52;;;;;;;;;;;;;;;9.01;53.84;100681.94;4340544;33;19967;-85
2022/10/21 01:10:19;;;;;;;;;;;;;;;9.00;53.48;100668.16;4338761;33;19988;-89
2022/10/21 01:13:05;;;;;;;;;;;;;;;9.22;52.83;100662.03;4344728;32;20344;-86
2022/10/21 01:15:32;;;;;;;;;;;;;;;9.15;53.47;100666.94;4353512;32;19947;-81
2022/10/21 01:18:10;;;;;;;;;;;;;;;8.99;53.63;100668.09;4355144;32;19971;-89
2022/10/21 01:20:38;;;;;;;;;;;;;;;8.94;53.94;100667.06;4354883;32;19994;-87
2022/10/21 01:23:04;;;;;;;;;;;;;;;9.01;53.47;100661.28;4348937;32;19974;-88
2022/10/21 01:25:31;;;;;;;;;;;;;;;9.12;53.12;100665.09;4346612;32;19983;-84
2022/10/21 01:28:04;;;;;;;;;;;;;;;9.09;53.13;100657.25;4341992;32;20335;-88
2022/10/21 01:30:43;;;;;;;;;;;;;;;8.99;53.43;100665.50;4340018;33;20050;-91
2022/10/21 01:33:28;;;;;;;;;;;;;;;8.84;53.92;100666.72;4340042;33;19987;-89
2022/10/21 01:36:17;;;;;;;;;;;;;;;9.00;53.46;100654.37;4002952;33;10003991;-93
2022/10/21 01:38:58;;;;;;;;;;;;;;;9.05;53.51;100657.97;4299980;33;19984;-79
2022/10/21 01:41:37;;;;;;;;;;;;;;;8.80;54.10;100646.75;4316862;33;20062;-84
2022/10/21 01:44:07;;;;;;;;;;;;;;;8.86;53.99;100635.78;4297369;33;20000;-84
2022/10/21 01:46:41;;;;;;;;;;;;;;;9.05;53.07;100624.41;4310623;33;20007;-91
2022/10/21 01:49:10;;;;;;;;;;;;;;;8.79;53.81;100624.38;4304290;33;20325;-78
2022/10/21 01:51:37;;;;;;;;;;;;;;;8.99;53.15;100637.09;4333211;33;20594;-87
2022/10/21 01:54:04;;;;;;;;;;;;;;;8.95;53.49;100623.22;4325213;33;20722;-87
2022/10/21 01:56:31;;;;;;;;;;;;;;;8.79;53.74;100631.25;4319953;33;20360;-86
2022/10/21 01:58:58;;;;;;;;;;;;;;;8.83;53.62;100641.72;4325578;33;20034;-87
2022/10/21 02:01:25;;;;;;;;;;;;;;;8.74;53.89;100645.66;4298959;33;19952;-92
2022/10/21 02:03:53;;;;;;;;;;;;;;;8.81;53.90;100647.66;4312283;33;20349;-85
2022/10/21 02:06:20;;;;;;;;;;;;;;;8.76;53.69;100637.16;4306140;33;20360;-84
2022/10/21 02:08:47;;;;;;;;;;;;;;;8.90;53.50;100631.59;4324087;33;20003;-86
2022/10/21 02:11:14;;;;;;;;;;;;;;;8.76;54.10;100634.59;4323854;33;20266;-88
2022/10/21 02:13:40;;;;;;;;;;;;;;;8.65;54.52;100629.84;4317282;33;20036;-89
2022/10/21 02:16:08;;;;;;;;;;;;;;;8.92;53.36;100638.59;4312287;33;19976;-81
2022/10/21 02:18:35;;;;;;;;;;;;;;;8.82;53.84;100650.28;4301394;33;19980;-91
2022/10/21 02:21:03;;;;;;;;;;;;;;;8.80;53.42;100659.66;4321824;33;20010;-86
2022/10/21 02:23:52;;;;;;;;;;;;;;;7.99;55.28;100660.84;4311809;33;19985;-84
2022/10/21 02:26:22;;;;;;;;;;;;;;;8.59;54.27;100644.31;4318956;33;19999;-80
2022/10/21 02:28:49;;;;;;;;;;;;;;;8.67;54.52;100644.56;4336777;32;19983;-84
2022/10/21 02:31:31;;;;;;;;;;;;;;;8.78;53.89;100642.41;4340605;32;20050;-90
2022/10/21 02:34:01;;;;;;;;;;;;;;;8.81;53.56;100658.88;4341370;33;19988;-85
2022/10/21 02:36:34;;;;;;;;;;;;;;;8.90;53.17;100662.59;4341578;33;20259;-80
2022/10/21 02:39:02;;;;;;;;;;;;;;;8.73;53.59;100655.13;4341113;33;19979;-85
2022/10/21 02:41:29;;;;;;;;;;;;;;;8.73;54.00;100652.53;4340178;33;20026;-79
2022/10/21 02:43:57;;;;;;;;;;;;;;;8.89;53.08;100637.59;4342769;32;20043;-87
2022/10/21 02:46:23;;;;;;;;;;;;;;;8.94;53.19;100633.50;4343227;32;19999;-82
2022/10/21 02:48:50;;;;;;;;;;;;;;;8.78;53.28;100632.94;4307060;33;19980;-82
2022/10/21 02:51:17;;;;;;;;;;;;;;;8.69;53.66;100640.34;4310863;33;19971;-90
2022/10/21 02:53:44;;;;;;;;;;;;;;;8.72;53.63;100643.03;4318794;33;19999;-80
2022/10/21 02:56:10;;;;;;;;;;;;;;;8.36;54.08;100632.22;4312168;33;20000;-85
2022/10/21 02:58:37;;;;;;;;;;;;;;;8.66;53.92;100629.03;4311977;33;19985;-82
2022/10/21 03:01:04;;;;;;;;;;;;;;;8.53;54.10;100635.47;4320135;33;19991;-85
2022/10/21 03:03:31;;;;;;;;;;;;;;;8.71;53.31;100630.97;4313701;33;20000;-86
2022/10/21 03:05:58;;;;;;;;;;;;;;;8.78;53.35;100642.41;4318146;33;19992;-84
2022/10/21 03:08:24;;;;;;;;;;;;;;;8.58;53.84;100645.12;4311229;33;19995;-88
2022/10/21 03:10:51;;;;;;;;;;;;;;;8.57;53.75;100645.94;4313663;33;19991;-88
2022/10/21 03:13:19;;;;;;;;;;;;;;;8.74;53.24;100646.56;4306864;33;20366;-82
2022/10/21 03:15:49;;;;;;;;;;;;;;;8.83;53.23;100635.69;4313278;33;20007;-84
2022/10/21 03:18:16;;;;;;;;;;;;;;;8.67;53.53;100634.25;4313016;33;19987;-90
2022/10/21 03:20:43;;;;;;;;;;;;;;;8.77;53.30;100631.16;4308193;33;20073;-88
2022/10/21 03:23:10;;;;;;;;;;;;;;;8.49;54.11;100633.59;4316085;33;20004;-80
2022/10/21 03:25:37;;;;;;;;;;;;;;;8.64;53.55;100639.28;4318647;33;20713;-88
2022/10/21 03:28:04;;;;;;;;;;;;;;;8.40;53.89;100633.25;4314851;33;20736;-89
2022/10/21 03:30:31;;;;;;;;;;;;;;;8.58;52.98;100626.16;4317824;33;19976;-85
2022/10/21 03:32:57;;;;;;;;;;;;;;;8.73;52.51;100615.53;4311784;33;19980;-84
2022/10/21 03:35:24;;;;;;;;;;;;;;;8.70;52.62;100615.41;4311587;33;19980;-83
2022/10/21 03:37:51;;;;;;;;;;;;;;;8.66;52.63;100614.44;4310163;33;19988;-87
2022/10/21 03:40:18;;;;;;;;;;;;;;;8.35;53.58;100620.13;4311637;33;20065;-88
2022/10/21 03:42:44;;;;;;;;;;;;;;;8.26;53.86;100625.81;4313486;33;20503;-87
2022/10/21 03:45:11;;;;;;;;;;;;;;;8.42;53.46;100611.81;4317616;33;20274;-89
2022/10/21 03:47:38;;;;;;;;;;;;;;;8.47;53.33;100610.28;4311403;33;20572;-81
2022/10/21 03:50:06;;;;;;;;;;;;;;;8.40;53.64;100604.88;4311547;33;19991;-87
2022/10/21 03:52:39;;;;;;;;;;;;;;;8.40;53.52;100597.13;4311582;33;19976;-85
2022/10/21 03:55:06;;;;;;;;;;;;;;;8.49;53.32;100594.88;4311473;33;19988;-85
2022/10/21 03:57:33;;;;;;;;;;;;;;;8.36;53.88;100596.09;4311345;33;19992;-84
2022/10/21 04:00:00;;;;;;;;;;;;;;;8.34;53.56;100588.28;4309979;33;19991;-87
2022/10/21 04:02:27;;;;;;;;;;;;;;;8.38;53.49;100592.78;4311492;33;19999;-80
2022/10/21 04:04:54;;;;;;;;;;;;;;;8.25;53.84;100587.94;4311022;33;19992;-82
2022/10/21 04:07:21;;;;;;;;;;;;;;;8.45;53.54;100590.41;4311636;33;20002;-90
2022/10/21 04:09:47;;;;;;;;;;;;;;;8.11;54.75;100581.41;4311696;33;19992;-84
2022/10/21 04:12:14;;;;;;;;;;;;;;;8.08;55.05;100578.72;4311308;33;19972;-83
2022/10/21 04:14:41;;;;;;;;;;;;;;;8.13;54.91;100577.16;4311557;33;20032;-78
2022/10/21 04:17:08;;;;;;;;;;;;;;;8.47;54.47;100578.47;4311202;33;19983;-90
2022/10/21 04:19:35;;;;;;;;;;;;;;;8.53;54.78;100581.28;4319184;33;20330;-83
2022/10/21 04:22:01;;;;;;;;;;;;;;;8.67;54.92;100577.47;4311544;33;20033;-86
2022/10/21 04:24:28;;;;;;;;;;;;;;;8.78;55.54;100576.16;4313487;33;20318;-88
2022/10/21 04:26:55;;;;;;;;;;;;;;;8.87;56.10;100579.87;4318114;33;19992;-88
2022/10/21 04:29:22;;;;;;;;;;;;;;;9.05;56.89;100585.66;4311357;33;19987;-86
2022/10/21 04:31:48;;;;;;;;;;;;;;;8.94;57.50;100587.03;4311765;33;19988;-84
2022/10/21 04:34:15;;;;;;;;;;;;;;;9.02;57.56;100576.09;4319156;33;19995;-79
2022/10/21 04:36:42;;;;;;;;;;;;;;;9.10;57.82;100572.94;4311630;33;20018;-87
2022/10/21 04:39:09;;;;;;;;;;;;;;;9.18;57.73;100556.84;4312890;33;20325;-86
2022/10/21 04:41:36;;;;;;;;;;;;;;;9.20;57.93;100557.78;4317960;33;19999;-83
2022/10/21 04:44:02;;;;;;;;;;;;;;;9.31;57.72;100552.94;4311174;33;20322;-81
2022/10/21 04:46:29;;;;;;;;;;;;;;;9.35;57.64;100549.66;4315494;33;19980;-87
2022/10/21 04:48:56;;;;;;;;;;;;;;;9.57;57.14;100540.84;4319469;33;19988;-84
2022/10/21 04:51:23;;;;;;;;;;;;;;;9.56;57.54;100544.28;4319091;33;20026;-88
2022/10/21 04:53:50;;;;;;;;;;;;;;;9.69;57.10;100546.41;4299107;33;19991;-86
2022/10/21 04:56:17;;;;;;;;;;;;;;;9.78;56.96;100541.53;4311536;33;19999;-86
2022/10/21 04:58:43;;;;;;;;;;;;;;;9.69;57.25;100546.41;4313366;33;19976;-84
2022/10/21 05:01:10;;;;;;;;;;;;;;;9.87;56.71;100545.25;4303019;33;20032;-83
2022/10/21 05:03:37;;;;;;;;;;;;;;;9.78;56.99;100546.69;4311239;33;19985;-84
2022/10/21 05:06:04;;;;;;;;;;;;;;;9.77;57.16;100544.97;4319328;33;19987;-85
2022/10/21 05:08:30;;;;;;;;;;;;;;;9.90;56.46;100541.03;4321910;33;19987;-82
2022/10/21 05:10:59;;;;;;;;;;;;;;;10.02;56.12;100546.56;4319506;33;19988;-81
2022/10/21 05:13:26;;;;;;;;;;;;;;;9.93;56.59;100545.44;4325613;33;20002;-84
2022/10/21 05:15:56;;;;;;;;;;;;;;;9.96;56.52;100545.53;4325842;33;19988;-81
2022/10/21 05:18:51;;;;;;;;;;;;;;;9.86;56.83;100544.38;4311376;33;20040;-84
2022/10/21 05:21:18;;;;;;;;;;;;;;;9.74;56.95;100537.09;4317542;33;20449;-82
2022/10/21 05:23:45;;;;;;;;;;;;;;;10.03;56.38;100542.28;4310920;33;20027;-82
2022/10/21 05:26:12;;;;;;;;;;;;;;;10.19;55.85;100549.66;4319095;33;20002;-82
2022/10/21 05:28:39;;;;;;;;;;;;;;;10.10;56.22;100554.56;4309060;33;19992;-82
2022/10/21 05:31:07;;;;;;;;;;;;;;;9.98;56.40;100554.19;4309529;33;19984;-84
2022/10/21 05:33:33;;;;;;;;;;;;;;;10.09;56.27;100547.62;4310128;33;19980;-86
2022/10/21 05:36:03;;;;;;;;;;;;;;;10.12;56.13;100552.03;4310110;33;20003;-84
2022/10/21 05:38:30;;;;;;;;;;;;;;;10.10;56.11;100554.56;4310333;33;20373;-86
2022/10/21 05:40:57;;;;;;;;;;;;;;;10.00;56.82;100568.03;4310185;33;19984;-83
2022/10/21 05:43:24;;;;;;;;;;;;;;;10.28;55.97;100564.59;4310892;33;20040;-86
2022/10/21 05:45:51;;;;;;;;;;;;;;;10.30;55.89;100556.88;4310663;33;20491;-85
2022/10/21 05:48:18;;;;;;;;;;;;;;;10.41;55.67;100537.34;4313956;33;19998;-84
2022/10/21 05:50:45;;;;;;;;;;;;;;;10.42;55.33;100526.16;4323905;33;19984;-84
2022/10/21 05:53:13;;;;;;;;;;;;;;;10.39;55.64;100526.06;4325461;33;20424;-82
2022/10/21 05:55:40;;;;;;;;;;;;;;;10.48;55.29;100531.50;4325965;33;19980;-89
2022/10/21 05:58:06;;;;;;;;;;;;;;;10.47;55.69;100538.41;4320043;33;19986;-85
2022/10/21 06:00:33;;;;;;;;;;;;;;;10.49;55.11;100564.31;4310675;33;19980;-85
2022/10/21 06:03:00;;;;;;;;;;;;;;;10.55;55.22;100580.03;4313851;33;19999;-84
2022/10/21 06:05:27;;;;;;;;;;;;;;;10.68;55.15;100571.75;4314149;33;20002;-85
2022/10/21 06:07:54;;;;;;;;;;;;;;;10.76;54.99;100574.56;4311062;33;19976;-85
2022/10/21 06:10:21;;;;;;;;;;;;;;;10.75;55.30;100584.88;4316435;33;20349;-84
2022/10/21 06:12:54;;;;;;;;;;;;;;;10.75;55.58;100588.34;4317361;33;19979;-80
2022/10/21 06:15:21;;;;;;;;;;;;;;;10.78;55.15;100590.13;4324593;33;19984;-86
2022/10/21 06:17:48;;;;;;;;;;;;;;;10.85;55.39;100594.66;4321605;33;19999;-83
2022/10/21 06:20:14;;;;;;;;;;;;;;;10.85;55.19;100599.84;4318612;33;20938;-86
2022/10/21 06:22:41;;;;;;;;;;;;;;;10.98;54.60;100588.09;4322925;32;20005;-86
2022/10/21 06:25:08;;;;;;;;;;;;;;;11.08;54.91;100590.97;4347918;32;20017;-86
2022/10/21 06:27:35;;;;;;;;;;;;;;;11.00;55.04;100589.87;4343161;32;19975;-86
2022/10/21 06:30:03;;;;;;;;;;;;;;;11.04;55.12;100599.50;4330277;32;20007;-85
2022/10/21 06:32:30;;;;;;;;;;;;;;;10.82;54.70;100599.75;4350529;32;19987;-86
2022/10/21 06:35:00;;;;;;;;;;;;;;;11.03;54.33;100621.03;4333277;32;20241;-87
2022/10/21 06:37:27;;;;;;;;;;;;;;;11.23;54.77;100610.31;4319734;32;19983;-86
2022/10/21 06:39:54;;;;;;;;;;;;;;;11.05;55.51;100598.66;4345573;32;19988;-88
2022/10/21 06:42:24;;;;;;;;;;;;;;;11.34;54.82;100595.94;4335998;32;19992;-86
2022/10/21 06:44:51;;;;;;;;;;;;;;;11.38;54.72;100587.38;4343433;32;20336;-87
2022/10/21 06:47:26;;;;;;;;;;;;;;;11.55;53.15;100593.88;4347430;32;19991;-86
2022/10/21 06:49:53;;;;;;;;;;;;;;;11.57;54.11;100589.59;4345232;32;20018;-86
2022/10/21 06:52:20;;;;;;;;;;;;;;;11.52;54.08;100580.84;4346421;32;19979;-86
2022/10/21 06:54:47;;;;;;;;;;;;;;;11.72;53.63;100570.06;4347843;32;20002;-85
2022/10/21 06:57:14;;;;;;;;;;;;;;;11.91;52.70;100567.06;4335339;32;19975;-85
2022/10/21 06:59:41;;;;;;;;;;;;;;;12.25;52.41;100570.38;4353376;32;19994;-87
2022/10/21 07:02:08;;;;;;;;;;;;;;;12.61;50.97;100569.37;4353023;32;20006;-87
2022/10/21 07:04:35;;;;;;;;;;;;;;;12.64;50.79;100574.66;4355483;32;20351;-87
2022/10/21 07:07:01;;;;;;;;;;;;;;;12.68;49.63;100566.94;4350290;32;19998;-87
2022/10/21 07:09:29;;;;;;;;;;;;;;;12.89;49.68;100575.97;4328869;33;19987;-86
2022/10/21 07:11:56;;;;;;;;;;;;;;;12.90;49.54;100573.41;4336654;32;20005;-86
2022/10/21 07:14:24;;;;;;;;;;;;;;;13.11;49.22;100577.22;4328110;33;19991;-88
2022/10/21 07:16:52;;;;;;;;;;;;;;;13.29;48.23;100569.78;4341408;33;20039;-88
2022/10/21 07:19:19;;;;;;;;;;;;;;;13.36;48.48;100571.63;4341535;33;19995;-87
2022/10/21 07:21:45;;;;;;;;;;;;;;;13.48;47.42;100574.44;4344842;32;19991;-89
2022/10/21 07:24:12;;;;;;;;;;;;;;;13.54;46.79;100583.19;3742105;32;10010151;-90
2022/10/21 07:26:43;;;;;;;;;;;;;;;13.63;46.75;100579.00;4336173;33;20015;-85
2022/10/21 07:29:10;;;;;;;;;;;;;;;13.64;46.77;100580.75;4324452;33;19993;-87
2022/10/21 07:31:36;;;;;;;;;;;;;;;13.67;46.66;100590.34;4326463;33;21031;-87
2022/10/21 07:34:04;;;;;;;;;;;;;;;13.86;46.79;100597.56;4326451;33;19980;-86
2022/10/21 07:36:32;;;;;;;;;;;;;;;14.05;46.24;100598.72;4334328;33;19980;-83
2022/10/21 07:39:01;;;;;;;;;;;;;;;14.14;45.72;100603.19;4325452;33;19984;-83
2022/10/21 07:41:30;;;;;;;;;;;;;;;14.36;45.07;100594.78;4326897;33;19999;-83
2022/10/21 07:43:56;;;;;;;;;;;;;;;14.47;44.96;100581.03;4333445;33;19996;-84
2022/10/21 07:46:23;;;;;;;;;;;;;;;14.30;45.54;100579.09;4325209;33;19988;-82
2022/10/21 07:48:50;;;;;;;;;;;;;;;14.49;44.53;100574.12;4326269;33;20079;-83
2022/10/21 07:51:18;;;;;;;;;;;;;;;14.49;44.29;100561.97;4325969;33;19983;-85
2022/10/21 07:53:45;;;;;;;;;;;;;;;14.58;43.55;100569.00;4325030;33;20002;-83
2022/10/21 07:56:17;;;;;;;;;;;;;;;14.73;43.28;100558.75;4326641;33;19983;-84
2022/10/21 07:58:45;;;;;;;;;;;;;;;14.81;43.59;100556.25;4331886;33;19976;-83
2022/10/21 08:01:13;;;;;;;;;;;;;;;14.92;42.74;100551.16;4332533;33;20305;-84
2022/10/21 08:03:40;;;;;;;;;;;;;;;15.07;42.21;100543.47;4327702;33;20102;-83
2022/10/21 08:06:07;;;;;;;;;;;;;;;15.02;42.15;100537.34;4329595;33;20050;-82
2022/10/21 08:08:34;;;;;;;;;;;;;;;15.23;41.63;100540.12;4337163;33;19968;-83
2022/10/21 08:11:02;;;;;;;;;;;;;;;15.13;41.95;100533.09;4334425;33;20034;-84
2022/10/21 08:13:30;;;;;;;;;;;;;;;15.32;41.58;100542.81;4332713;33;20039;-86
2022/10/21 08:15:57;;;;;;;;;;;;;;;15.41;41.20;100534.19;4326572;33;19992;-90
2022/10/21 08:18:25;;;;;;;;;;;;;;;15.66;40.14;100530.00;4324086;33;19980;-84
2022/10/21 08:20:52;;;;;;;;;;;;;;;15.77;40.59;100528.37;4330568;33;20047;-83
2022/10/21 08:23:19;;;;;;;;;;;;;;;16.20;39.53;100528.56;4324573;33;19980;-82
2022/10/21 08:25:50;;;;;;;;;;;;;;;15.99;40.07;100523.28;4333252;33;20853;-82
2022/10/21 08:28:18;;;;;;;;;;;;;;;16.01;39.84;100521.53;4325238;33;19995;-86
2022/10/21 08:30:44;;;;;;;;;;;;;;;16.08;40.76;100522.44;4324181;33;20008;-87
2022/10/21 08:33:12;;;;;;;;;;;;;;;15.99;39.83;100518.06;4328827;33;19997;-85
2022/10/21 08:35:38;;;;;;;;;;;;;;;16.09;39.89;100526.81;4328225;33;20305;-85
2022/10/21 08:38:06;;;;;;;;;;;;;;;16.13;39.41;100521.59;4325299;33;20010;-87
2022/10/21 08:40:39;;;;;;;;;;;;;;;16.08;39.62;100506.75;4330608;33;19994;-85
2022/10/21 08:43:12;;;;;;;;;;;;;;;15.83;40.36;100503.19;4326322;33;20055;-85
2022/10/21 08:45:48;;;;;;;;;;;;;;;15.92;40.08;100501.50;4339089;33;20322;-87
2022/10/21 08:48:17;;;;;;;;;;;;;;;15.44;41.50;100497.66;4335799;33;19986;-84
2022/10/21 08:50:46;;;;;;;;;;;;;;;15.60;41.38;100503.88;4326044;33;19991;-86
2022/10/21 08:53:14;;;;;;;;;;;;;;;15.68;40.03;100491.78;4326790;33;19983;-87
2022/10/21 08:55:41;;;;;;;;;;;;;;;15.70;41.23;100500.50;4333267;33;20062;-86
2022/10/21 08:58:11;;;;;;;;;;;;;;;15.50;41.22;100494.22;4339380;33;19980;-85
2022/10/21 09:00:41;;;;;;;;;;;;;;;15.86;40.50;100484.91;4333751;33;20682;-85
2022/10/21 09:03:11;;;;;;;;;;;;;;;15.96;39.97;100479.75;4331231;33;19988;-83
2022/10/21 09:05:56;;;;;;;;;;;;;;;15.90;40.59;100482.31;4324127;33;19984;-85
2022/10/21 09:08:24;;;;;;;;;;;;;;;16.27;39.97;100478.13;4326444;33;19972;-83
2022/10/21 09:11:10;;;;;;;;;;;;;;;16.54;39.63;100483.41;4330906;33;19999;-81
2022/10/21 09:13:36;;;;;;;;;;;;;;;16.62;39.26;100479.91;4327085;33;19999;-83
2022/10/21 09:16:06;;;;;;;;;;;;;;;16.82;38.55;100471.28;4334084;33;20022;-84
2022/10/21 09:18:51;;;;;;;;;;;;;;;16.99;38.77;100466.94;4340406;33;19979;-83
2022/10/21 09:21:18;;;;;;;;;;;;;;;16.88;38.10;100468.66;4333707;33;20638;-83
2022/10/21 09:24:05;;;;;;;;;;;;;;;16.63;39.26;100459.91;4330831;33;19979;-83
2022/10/21 09:26:34;;;;;;;;;;;;;;;16.67;38.49;100461.66;4333803;33;19983;-82
2022/10/21 09:29:11;;;;;;;;;;;;;;;16.99;38.45;100463.44;4325160;33;19991;-85
2022/10/21 09:31:38;;;;;;;;;;;;;;;16.52;37.37;100460.75;4323619;33;20438;-82
2022/10/21 09:34:05;;;;;;;;;;;;;;;16.71;38.27;100461.63;4324434;33;19988;-83
2022/10/21 09:36:35;;;;;;;;;;;;;;;16.88;38.30;100455.56;4327671;33;20313;-83
2022/10/21 09:39:06;;;;;;;;;;;;;;;16.52;38.57;100446.81;4332442;33;20006;-85
2022/10/21 09:41:37;;;;;;;;;;;;;;;16.42;38.93;100435.47;4326150;33;19988;-83
2022/10/21 09:44:04;;;;;;;;;;;;;;;16.52;38.39;100441.56;4324535;33;19998;-84
2022/10/21 09:46:31;;;;;;;;;;;;;;;16.45;38.97;100435.47;4330302;33;19983;-85
2022/10/21 09:48:58;;;;;;;;;;;;;;;16.53;38.86;100427.66;4324672;33;20002;-84
2022/10/21 09:51:45;;;;;;;;;;;;;;;16.14;39.20;100436.25;4325779;33;20015;-86
2022/10/21 09:54:22;;;;;;;;;;;;;;;16.37;38.72;100423.25;4324677;33;19984;-84
2022/10/21 09:57:01;;;;;;;;;;;;;;;16.45;38.78;100424.16;4324145;33;19984;-85
2022/10/21 09:59:30;;;;;;;;;;;;;;;16.28;39.67;100422.38;4325243;33;20310;-86
2022/10/21 10:02:10;;;;;;;;;;;;;;;16.44;38.13;100419.81;4323723;33;20069;-87
2022/10/21 10:04:38;;;;;;;;;;;;;;;16.15;39.08;100424.97;4324234;33;20315;-85
2022/10/21 10:07:18;;;;;;;;;;;;;;;16.39;38.31;100409.31;4329021;33;19988;-85
2022/10/21 10:09:46;;;;;;;;;;;;;;;16.21;39.37;100409.31;4325252;33;19976;-85
2022/10/21 10:12:14;;;;;;;;;;;;;;;16.37;38.80;100404.97;4323970;33;20013;-85
2022/10/21 10:14:41;;;;;;;;;;;;;;;16.34;38.81;100394.53;4325159;33;19998;-84
2022/10/21 10:17:30;;;;;;;;;;;;;;;15.76;40.38;100396.13;4324708;33;19996;-86
2022/10/21 10:20:03;;;;;;;;;;;;;;;16.06;39.91;100394.47;4336727;33;19972;-85
2022/10/21 10:22:32;;;;;;;;;;;;;;;16.38;38.04;100380.59;4342342;33;19999;-84
2022/10/21 10:25:10;;;;;;;;;;;;;;;16.15;39.28;100371.00;4334301;33;20322;-84
2022/10/21 10:27:54;;;;;;;;;;;;;;;16.48;39.11;100372.75;4339854;33;20002;-86
2022/10/21 10:30:21;;;;;;;;;;;;;;;16.47;39.91;100386.72;4337909;33;19979;-87
2022/10/21 10:32:49;;;;;;;;;;;;;;;16.43;38.59;100378.84;4321755;33;20023;-86
2022/10/21 10:35:25;;;;;;;;;;;;;;;16.99;37.43;100377.13;4332916;33;19983;-84
2022/10/21 10:37:52;;;;;;;;;;;;;;;17.23;37.57;100368.34;4325565;33;19980;-83
2022/10/21 10:40:23;;;;;;;;;;;;;;;17.00;38.71;100364.03;4310069;33;20364;-85
2022/10/21 10:42:50;;;;;;;;;;;;;;;16.99;38.38;100364.91;4310617;33;20000;-85
2022/10/21 10:45:19;;;;;;;;;;;;;;;16.97;37.66;100358.81;4310741;33;20829;-87
2022/10/21 10:47:58;;;;;;;;;;;;;;;17.09;37.12;100345.72;4310618;33;19998;-87
2022/10/21 10:50:46;;;;;;;;;;;;;;;16.91;37.32;100346.66;4320174;33;19975;-87
2022/10/21 10:53:15;;;;;;;;;;;;;;;16.92;37.07;100347.50;4311115;33;20032;-85
2022/10/21 10:55:42;;;;;;;;;;;;;;;17.02;37.54;100340.50;4320250;33;20004;-87
2022/10/21 10:58:09;;;;;;;;;;;;;;;16.84;38.45;100336.19;4310594;33;19995;-87
2022/10/21 11:00:42;;;;;;;;;;;;;;;16.81;38.56;100317.88;4311989;33;20340;-86
2022/10/21 11:03:17;;;;;;;;;;;;;;;16.97;38.09;100309.13;4313781;33;19996;-87
2022/10/21 11:05:45;;;;;;;;;;;;;;;17.10;37.25;100310.84;4315651;33;19992;-83
2022/10/21 11:08:13;;;;;;;;;;;;;;;16.79;37.39;100314.41;4311994;33;19996;-85
2022/10/21 11:10:44;;;;;;;;;;;;;;;16.95;38.21;100316.13;4312268;33;19984;-83
2022/10/21 11:13:14;;;;;;;;;;;;;;;16.81;38.69;100317.88;4318097;33;19976;-84
2022/10/21 11:15:41;;;;;;;;;;;;;;;17.00;38.11;100309.13;4324962;33;20010;-85
2022/10/21 11:18:11;;;;;;;;;;;;;;;16.99;37.86;100304.78;4325073;33;19994;-85
2022/10/21 11:20:56;;;;;;;;;;;;;;;16.95;38.22;100300.44;4324591;33;19972;-85
2022/10/21 11:23:31;;;;;;;;;;;;;;;17.12;37.87;100303.84;4325549;33;19976;-85
2022/10/21 11:26:02;;;;;;;;;;;;;;;17.10;37.90;100295.16;4318988;33;20356;-85
2022/10/21 11:28:29;;;;;;;;;;;;;;;17.08;37.90;100286.44;4324269;33;20326;-85
2022/10/21 11:31:15;;;;;;;;;;;;;;;16.93;38.55;100286.47;4323783;33;19976;-85
2022/10/21 11:33:56;;;;;;;;;;;;;;;17.10;38.79;100284.69;4321237;33;19984;-86
2022/10/21 11:36:29;;;;;;;;;;;;;;;17.02;38.47;100270.75;4320378;33;19991;-87
2022/10/21 11:39:15;;;;;;;;;;;;;;;17.06;38.56;100267.25;4320805;33;20400;-84
2022/10/21 11:41:54;;;;;;;;;;;;;;;17.05;37.30;100254.19;4314016;33;20040;-84
2022/10/21 11:44:28;;;;;;;;;;;;;;;17.25;36.60;100246.25;4310564;33;20000;-84
2022/10/21 11:47:15;;;;;;;;;;;;;;;17.12;37.88;100256.78;4312550;33;19988;-85
2022/10/21 11:49:43;;;;;;;;;;;;;;;17.07;37.81;100253.31;4306127;33;19980;-85
2022/10/21 11:52:09;;;;;;;;;;;;;;;17.22;36.45;100256.72;4311958;33;20286;-83
2022/10/21 11:54:42;;;;;;;;;;;;;;;16.98;37.59;100248.13;4306779;33;20743;-81
2022/10/21 11:57:35;;;;;;;;;;;;;;;17.13;37.36;100247.16;4319452;33;20023;-84
2022/10/21 12:00:20;;;;;;;;;;;;;;;17.06;37.23;100242.84;4320709;33;20003;-85
2022/10/21 12:03:00;;;;;;;;;;;;;;;17.09;37.45;100222.78;4310685;33;19980;-86
2022/10/21 12:05:31;;;;;;;;;;;;;;;17.24;36.19;100223.59;4326652;33;20001;-83
2022/10/21 12:08:01;;;;;;;;;;;;;;;16.91;36.41;100225.47;4343683;32;20002;-87
2022/10/21 12:10:31;;;;;;;;;;;;;;;16.76;38.44;100225.53;4344587;32;19983;-87
2022/10/21 12:12:59;;;;;;;;;;;;;;;16.95;37.35;100232.44;4338682;32;19975;-86
2022/10/21 12:15:38;;;;;;;;;;;;;;;16.91;36.73;100221.13;4348127;32;19975;-85
2022/10/21 12:18:05;;;;;;;;;;;;;;;17.03;36.93;100214.94;4328116;32;20045;-85
2022/10/21 12:20:34;;;;;;;;;;;;;;;16.89;37.28;100222.84;4353570;32;20345;-90
2022/10/21 12:23:02;;;;;;;;;;;;;;;17.01;36.90;100224.56;4354429;32;19978;-83
2022/10/21 12:25:35;;;;;;;;;;;;;;;16.68;37.96;100223.75;4333790;32;20309;-86
2022/10/21 12:28:08;;;;;;;;;;;;;;;17.07;35.74;100210.56;4327846;32;20006;-84
2022/10/21 12:30:52;;;;;;;;;;;;;;;16.80;36.67;100214.19;4333289;32;19987;-84
2022/10/21 12:33:41;;;;;;;;;;;;;;;16.81;36.97;100210.69;4338190;32;19995;-85
2022/10/21 12:36:21;;;;;;;;;;;;;;;16.62;37.04;100208.06;4358998;32;20078;-84
2022/10/21 12:38:50;;;;;;;;;;;;;;;16.62;36.82;100202.00;4348145;32;19995;-84
2022/10/21 12:41:23;;;;;;;;;;;;;;;16.84;36.84;100206.31;4332356;32;19983;-85
2022/10/21 12:43:53;;;;;;;;;;;;;;;16.83;37.14;100195.88;4348089;32;19975;-83
2022/10/21 12:46:23;;;;;;;;;;;;;;;16.98;36.55;100195.81;4347743;32;20063;-84
2022/10/21 12:48:51;;;;;;;;;;;;;;;16.81;36.54;100192.38;4334143;32;19983;-83
2022/10/21 12:51:29;;;;;;;;;;;;;;;17.02;36.28;100181.84;4338479;32;19979;-85
2022/10/21 12:54:02;;;;;;;;;;;;;;;17.00;36.88;100183.56;4348273;32;19984;-85